createdAt,value
2023-10-27T00:01:06.739Z,0.82
2023-10-27T00:03:34.781Z,0.78
2023-10-27T00:06:02.775Z,0.76
2023-10-27T00:08:31.610Z,0.74
2023-10-27T00:11:05.398Z,0.74
2023-10-27T00:13:33.534Z,0.74
2023-10-27T00:16:01.526Z,0.81
2023-10-27T00:18:29.546Z,0.74
2023-10-27T00:20:57.524Z,0.76
2023-10-27T00:23:25.512Z,0.72
2023-10-27T00:25:53.921Z,0.68
2023-10-27T00:28:23.318Z,0.68
2023-10-27T00:30:51.261Z,0.72
2023-10-27T00:33:19.250Z,0.65
2023-10-27T00:35:47.179Z,0.65
2023-10-27T00:38:15.086Z,0.68
2023-10-27T00:40:43.020Z,0.72
2023-10-27T00:43:11.049Z,0.74
2023-10-27T00:45:40.581Z,0.75
2023-10-27T00:48:08.668Z,0.73
2023-10-27T00:50:36.713Z,0.76
2023-10-27T00:53:05.352Z,0.72
2023-10-27T00:55:34.457Z,0.74
2023-10-27T00:58:02.664Z,0.74
2023-10-27T01:00:30.895Z,0.73
2023-10-27T01:03:00.217Z,0.74
2023-10-27T01:05:28.189Z,0.68
2023-10-27T01:07:56.443Z,0.71
2023-10-27T01:10:24.582Z,0.68
2023-10-27T01:12:52.645Z,0.67
2023-10-27T01:15:21.232Z,0.70
2023-10-27T01:17:49.394Z,0.68
2023-10-27T01:20:19.024Z,0.70
2023-10-27T01:22:49.281Z,0.68
2023-10-27T01:25:18.090Z,0.63
2023-10-27T01:27:46.027Z,0.51
2023-10-27T01:30:14.629Z,0.54
2023-10-27T01:32:44.645Z,0.52
2023-10-27T01:35:13.092Z,0.55
2023-10-27T01:37:41.169Z,0.55
2023-10-27T01:40:12.052Z,0.53
2023-10-27T01:42:40.051Z,0.54
2023-10-27T01:45:09.345Z,0.52
2023-10-27T01:47:37.350Z,0.58
2023-10-27T01:50:05.728Z,0.55
2023-10-27T01:52:33.666Z,0.61
2023-10-27T01:55:01.615Z,0.59
2023-10-27T01:57:30.961Z,0.52
2023-10-27T01:59:58.900Z,0.50
2023-10-27T02:02:26.878Z,0.46
2023-10-27T02:04:54.846Z,0.45
2023-10-27T02:07:25.890Z,0.42
2023-10-27T02:09:54.070Z,0.43
2023-10-27T02:12:22.040Z,0.42
2023-10-27T02:14:51.337Z,0.39
2023-10-27T02:17:19.243Z,0.40
2023-10-27T02:19:48.503Z,0.43
2023-10-27T02:22:16.585Z,0.48
2023-10-27T02:24:44.901Z,0.46
2023-10-27T02:27:13.100Z,0.46
2023-10-27T02:29:41.040Z,0.41
2023-10-27T02:32:10.385Z,0.43
2023-10-27T02:34:38.299Z,0.40
2023-10-27T02:37:06.682Z,0.33
2023-10-27T02:39:34.652Z,0.34
2023-10-27T02:42:02.614Z,0.36
2023-10-27T02:44:30.536Z,0.35
2023-10-27T02:46:58.492Z,0.38
2023-10-27T02:49:27.890Z,0.39
2023-10-27T02:51:55.971Z,0.44
2023-10-27T02:54:23.917Z,0.42
2023-10-27T02:56:51.890Z,0.38
2023-10-27T02:59:19.818Z,0.38
2023-10-27T03:01:47.949Z,0.34
2023-10-27T03:04:15.970Z,0.39
2023-10-27T03:06:45.386Z,0.40
2023-10-27T03:09:13.346Z,0.37
2023-10-27T03:11:41.254Z,0.35
2023-10-27T03:14:09.299Z,0.37
2023-10-27T03:16:37.370Z,0.34
2023-10-27T03:19:06.228Z,0.37
2023-10-27T03:21:34.378Z,0.34
2023-10-27T03:24:03.857Z,0.33
2023-10-27T03:26:31.772Z,0.32
2023-10-27T03:28:59.993Z,0.28
2023-10-27T03:31:28.118Z,0.29
2023-10-27T03:33:56.045Z,0.32
2023-10-27T03:36:24.171Z,0.35
2023-10-27T03:38:52.095Z,0.36
2023-10-27T03:41:21.510Z,0.37
2023-10-27T03:43:49.748Z,0.37
2023-10-27T03:46:17.791Z,0.41
2023-10-27T03:48:45.883Z,0.40
2023-10-27T03:51:13.850Z,0.44
2023-10-27T03:53:41.806Z,0.44
2023-10-27T03:56:09.756Z,0.48
2023-10-27T03:58:47.790Z,0.47
2023-10-27T04:01:16.809Z,0.39
2023-10-27T04:03:44.935Z,0.40
2023-10-27T04:06:13.405Z,0.37
2023-10-27T04:08:41.350Z,0.39
2023-10-27T04:11:09.308Z,0.40
2023-10-27T04:13:38.552Z,0.44
2023-10-27T04:16:07.033Z,0.40
2023-10-27T04:18:35.098Z,0.39
2023-10-27T04:21:04.272Z,0.37
2023-10-27T04:23:32.432Z,0.39
2023-10-27T04:26:00.759Z,0.41
2023-10-27T04:28:28.951Z,0.37
2023-10-27T04:30:58.336Z,0.35
2023-10-27T04:33:26.588Z,0.35
2023-10-27T04:35:54.628Z,0.33
2023-10-27T04:38:22.533Z,0.38
2023-10-27T04:40:52.845Z,0.35
2023-10-27T04:43:22.529Z,0.36
2023-10-27T04:45:51.030Z,0.35
2023-10-27T04:48:20.323Z,0.35
2023-10-27T04:50:54.254Z,0.35
2023-10-27T04:53:22.225Z,0.35
2023-10-27T04:55:50.222Z,0.36
2023-10-27T04:58:18.773Z,0.34
2023-10-27T05:00:46.722Z,0.33
2023-10-27T05:03:14.674Z,0.34
2023-10-27T05:05:44.016Z,0.37
2023-10-27T05:08:14.694Z,0.40
2023-10-27T05:10:43.383Z,0.40
2023-10-27T05:13:11.499Z,0.37
2023-10-27T05:15:39.664Z,0.38
2023-10-27T05:18:07.939Z,0.34
2023-10-27T05:20:39.478Z,0.39
2023-10-27T05:23:11.463Z,0.42
2023-10-27T05:25:39.469Z,0.41
2023-10-27T05:28:08.802Z,0.49
2023-10-27T05:30:38.589Z,0.44
2023-10-27T05:33:09.066Z,0.40
2023-10-27T05:35:37.098Z,0.31
2023-10-27T05:38:05.074Z,0.32
2023-10-27T05:40:37.175Z,0.33
2023-10-27T05:43:05.174Z,0.33
2023-10-27T05:45:33.164Z,0.34
2023-10-27T05:48:01.179Z,0.40
2023-10-27T05:50:29.325Z,0.39
2023-10-27T05:52:57.424Z,0.37
2023-10-27T05:55:26.723Z,0.50
2023-10-27T05:57:56.013Z,0.45
2023-10-27T06:00:24.177Z,0.42
2023-10-27T06:02:54.314Z,0.46
2023-10-27T06:06:14.619Z,0.44
2023-10-27T06:08:45.249Z,0.47
2023-10-27T06:11:13.300Z,0.53
2023-10-27T06:13:42.615Z,0.52
2023-10-27T06:16:10.659Z,0.49
2023-10-27T06:18:39.344Z,0.51
2023-10-27T06:21:07.282Z,0.63
2023-10-27T06:23:36.940Z,0.59
2023-10-27T06:26:05.844Z,0.56
2023-10-27T06:28:33.837Z,0.49
2023-10-27T06:31:06.504Z,0.45
2023-10-27T06:33:35.892Z,0.36
2023-10-27T06:36:03.853Z,0.38
2023-10-27T06:38:32.112Z,0.43
2023-10-27T06:41:00.064Z,0.40
2023-10-27T06:43:31.236Z,0.43
2023-10-27T06:45:59.189Z,0.43
2023-10-27T06:48:28.644Z,0.44
2023-10-27T06:51:03.075Z,0.39
2023-10-27T06:53:31.181Z,0.49
2023-10-27T06:55:59.224Z,0.52
2023-10-27T07:01:16.353Z,0.49
2023-10-27T07:03:48.297Z,0.52
2023-10-27T07:06:24.005Z,0.52
2023-10-27T07:08:59.538Z,0.58
2023-10-27T07:11:36.407Z,0.50
2023-10-27T07:14:06.742Z,0.55
2023-10-27T07:16:36.851Z,0.54
2023-10-27T07:19:08.788Z,0.53
2023-10-27T07:21:38.395Z,0.58
2023-10-27T07:24:07.347Z,0.55
2023-10-27T07:26:35.276Z,0.54
2023-10-27T07:29:16.432Z,0.54
2023-10-27T07:31:46.597Z,0.53
2023-10-27T07:34:15.967Z,0.56
2023-10-27T07:36:49.564Z,0.60
2023-10-27T07:39:19.585Z,0.63
2023-10-27T07:41:47.644Z,0.62
2023-10-27T07:44:17.652Z,0.68
2023-10-27T07:46:46.666Z,0.70
2023-10-27T07:49:24.906Z,0.69
2023-10-27T07:51:52.971Z,0.69
2023-10-27T07:54:23.529Z,0.73
2023-10-27T07:56:51.494Z,0.67
2023-10-27T07:59:23.712Z,0.70
2023-10-27T08:01:56.744Z,0.71
2023-10-27T08:04:28.331Z,0.83
2023-10-27T08:06:56.506Z,0.76
2023-10-27T08:09:25.513Z,0.74
2023-10-27T08:11:54.720Z,0.72
2023-10-27T08:14:22.717Z,0.73
2023-10-27T08:16:53.073Z,0.73
2023-10-27T08:19:21.190Z,0.70
2023-10-27T08:21:50.640Z,0.75
2023-10-27T08:24:18.648Z,0.75
2023-10-27T08:26:48.918Z,0.73
2023-10-27T08:29:18.830Z,0.72
2023-10-27T08:31:54.211Z,0.75
2023-10-27T08:34:28.423Z,0.80
2023-10-27T08:37:02.370Z,0.82
2023-10-27T08:39:32.051Z,0.78
2023-10-27T08:42:11.852Z,0.73
2023-10-27T08:44:41.469Z,0.73
2023-10-27T08:47:16.282Z,0.69
2023-10-27T08:50:10.446Z,0.68
2023-10-27T08:52:40.919Z,0.76
2023-10-27T08:55:10.845Z,0.71
2023-10-27T08:57:59.535Z,0.65
2023-10-27T09:00:27.864Z,0.66
2023-10-27T09:02:58.690Z,0.71
2023-10-27T09:05:29.933Z,0.71
2023-10-27T09:07:59.807Z,0.67
2023-10-27T09:10:28.119Z,0.73
2023-10-27T09:13:00.897Z,0.70
2023-10-27T09:15:43.183Z,0.68
2023-10-27T09:18:11.261Z,0.67
2023-10-27T09:20:50.993Z,0.69
2023-10-27T09:23:21.856Z,0.65
2023-10-27T09:25:49.966Z,0.68
2023-10-27T09:28:30.786Z,0.73
2023-10-27T09:30:59.361Z,0.75
2023-10-27T09:33:29.683Z,0.70
2023-10-27T09:35:59.575Z,0.77
2023-10-27T09:38:31.327Z,0.77
2023-10-27T09:41:08.357Z,0.74
2023-10-27T09:43:40.320Z,0.81
2023-10-27T09:46:10.059Z,0.87
2023-10-27T09:48:41.004Z,0.80
2023-10-27T09:51:13.078Z,0.79
2023-10-27T09:53:42.923Z,0.84
2023-10-27T09:56:15.826Z,0.82
2023-10-27T09:58:43.014Z,0.83
2023-10-27T10:01:18.404Z,0.87
2023-10-27T10:03:46.704Z,0.96
2023-10-27T10:06:19.296Z,0.91
2023-10-27T10:09:15.747Z,0.96
2023-10-27T10:12:00.713Z,0.97
2023-10-27T10:14:51.027Z,1.00
2023-10-27T10:17:39.931Z,0.95
2023-10-27T10:20:10.513Z,0.98
2023-10-27T10:22:57.187Z,0.96
2023-10-27T10:25:34.393Z,0.91
2023-10-27T10:28:28.521Z,0.87
2023-10-27T10:31:29.819Z,0.90
2023-10-27T10:34:13.025Z,0.90
2023-10-27T10:36:42.798Z,0.96
2023-10-27T10:39:12.512Z,0.97
2023-10-27T10:42:05.020Z,1.00
2023-10-27T10:44:33.678Z,1.01
2023-10-27T10:47:18.805Z,1.00
2023-10-27T10:49:46.800Z,1.03
2023-10-27T10:52:22.190Z,1.02
2023-10-27T10:54:53.255Z,1.00
2023-10-27T10:57:23.089Z,1.02
2023-10-27T10:59:57.485Z,1.02
2023-10-27T11:02:25.512Z,1.00
2023-10-27T11:04:58.826Z,0.97
2023-10-27T11:07:29.923Z,1.00
2023-10-27T11:10:22.552Z,1.04
2023-10-27T11:12:53.925Z,1.05
2023-10-27T11:15:48.314Z,1.05
2023-10-27T11:18:18.520Z,1.02
2023-10-27T11:20:46.963Z,1.03
2023-10-27T11:23:16.598Z,1.06
2023-10-27T11:25:45.741Z,1.05
2023-10-27T11:28:31.205Z,1.07
2023-10-27T11:31:11.725Z,1.07
2023-10-27T11:34:09.792Z,1.10
2023-10-27T11:37:04.902Z,1.06
2023-10-27T11:39:51.010Z,1.10
2023-10-27T11:42:19.017Z,1.08
2023-10-27T11:44:48.492Z,1.17
2023-10-27T11:47:16.487Z,1.13
2023-10-27T11:49:51.445Z,1.17
2023-10-27T11:52:23.813Z,1.24
2023-10-27T11:54:51.885Z,1.25
2023-10-27T11:57:19.942Z,1.19
2023-10-27T11:59:55.154Z,1.15
2023-10-27T12:02:26.955Z,1.21
2023-10-27T12:04:56.303Z,1.16
2023-10-27T12:07:26.225Z,1.16
2023-10-27T12:10:00.067Z,1.20
2023-10-27T12:12:28.020Z,1.24
2023-10-27T12:15:02.538Z,1.24
2023-10-27T12:17:38.197Z,1.17
2023-10-27T12:20:42.848Z,1.17
2023-10-27T12:23:13.473Z,1.19
2023-10-27T12:25:44.178Z,1.20
2023-10-27T12:28:14.833Z,1.20
2023-10-27T12:30:45.953Z,1.16
2023-10-27T12:33:22.562Z,1.21
2023-10-27T12:36:29.661Z,1.19
2023-10-27T12:39:35.254Z,1.23
2023-10-27T12:42:06.669Z,1.23
2023-10-27T12:44:34.620Z,1.20
2023-10-27T12:47:05.285Z,1.23
2023-10-27T12:49:36.281Z,1.26
2023-10-27T12:52:10.639Z,1.21
2023-10-27T12:55:02.739Z,1.24
2023-10-27T12:57:36.449Z,1.27
2023-10-27T13:00:12.220Z,1.26
2023-10-27T13:02:41.601Z,1.25
2023-10-27T13:05:13.744Z,1.25
2023-10-27T13:07:42.267Z,1.22
2023-10-27T13:10:10.688Z,1.23
2023-10-27T13:12:41.076Z,1.28
2023-10-27T13:15:17.284Z,1.26
2023-10-27T13:17:50.414Z,1.20
2023-10-27T13:20:21.414Z,1.20
2023-10-27T13:22:53.735Z,1.17
2023-10-27T13:25:29.020Z,1.24
2023-10-27T13:28:31.864Z,1.24
2023-10-27T13:31:07.678Z,1.25
2023-10-27T13:34:05.860Z,1.17
2023-10-27T13:36:41.858Z,1.16
2023-10-27T13:39:41.236Z,1.12
2023-10-27T13:42:56.140Z,1.14
2023-10-27T13:45:26.040Z,1.15
2023-10-27T13:48:04.438Z,1.18
2023-10-27T13:50:37.675Z,1.13
2023-10-27T13:53:10.181Z,1.16
2023-10-27T13:55:49.156Z,1.12
2023-10-27T13:58:20.088Z,1.15
2023-10-27T14:00:48.206Z,1.14
2023-10-27T14:03:16.337Z,1.10
2023-10-27T14:05:50.483Z,1.11
2023-10-27T14:08:21.885Z,1.17
2023-10-27T14:10:53.689Z,1.18
2023-10-27T14:13:25.904Z,1.22
2023-10-27T14:15:55.026Z,1.21
2023-10-27T14:18:23.380Z,1.19
2023-10-27T14:20:54.346Z,1.11
2023-10-27T14:23:22.402Z,1.18
2023-10-27T14:25:50.438Z,1.12
2023-10-27T14:28:21.221Z,1.05
2023-10-27T14:30:49.927Z,1.08
2023-10-27T14:33:18.008Z,1.07
2023-10-27T14:35:48.565Z,1.07
2023-10-27T14:38:18.171Z,1.06
2023-10-27T14:40:52.341Z,1.06
2023-10-27T14:43:20.433Z,1.04
2023-10-27T14:46:00.258Z,1.00
2023-10-27T14:48:32.223Z,1.00
2023-10-27T14:51:05.287Z,1.00
2023-10-27T14:53:40.056Z,0.99
2023-10-27T14:56:49.358Z,0.96
2023-10-27T14:59:17.527Z,0.99
2023-10-27T15:01:46.319Z,0.97
2023-10-27T15:04:16.476Z,0.99
2023-10-27T15:06:50.241Z,0.94
2023-10-27T15:09:22.195Z,0.96
2023-10-27T15:11:50.285Z,0.95
2023-10-27T15:14:18.342Z,0.94
2023-10-27T15:16:47.948Z,0.91
2023-10-27T15:19:18.473Z,0.89
2023-10-27T15:21:49.868Z,0.86
2023-10-27T15:24:19.297Z,0.91
2023-10-27T15:26:48.920Z,0.90
2023-10-27T15:29:19.808Z,0.87
2023-10-27T15:32:25.330Z,0.87
2023-10-27T15:35:29.266Z,0.87
2023-10-27T15:38:20.452Z,0.80
2023-10-27T15:41:00.586Z,0.78
2023-10-27T15:43:31.428Z,0.78
2023-10-27T15:46:04.913Z,0.75
2023-10-27T15:48:33.529Z,0.78
2023-10-27T15:51:05.810Z,0.76
2023-10-27T15:53:49.609Z,0.78
2023-10-27T15:56:27.814Z,0.74
2023-10-27T15:58:59.708Z,0.78
2023-10-27T16:01:27.796Z,0.77
2023-10-27T16:03:58.778Z,0.76
2023-10-27T16:06:33.414Z,0.82
2023-10-27T16:09:04.876Z,0.81
2023-10-27T16:11:48.063Z,0.79
2023-10-27T16:14:17.576Z,0.77
2023-10-27T16:16:51.774Z,0.82
2023-10-27T16:19:20.067Z,0.73
2023-10-27T16:21:48.098Z,0.76
2023-10-27T16:24:16.183Z,0.73
2023-10-27T16:26:47.510Z,0.74
2023-10-27T16:29:17.229Z,0.67
2023-10-27T16:31:46.067Z,0.69
2023-10-27T16:34:14.292Z,0.64
2023-10-27T16:36:42.499Z,0.67
2023-10-27T16:39:13.242Z,0.60
2023-10-27T16:41:41.266Z,0.66
2023-10-27T16:44:10.634Z,0.64
2023-10-27T16:46:39.618Z,0.64
2023-10-27T16:49:07.676Z,0.66
2023-10-27T16:51:39.742Z,0.58
2023-10-27T16:54:29.601Z,0.58
2023-10-27T16:56:59.204Z,0.46
2023-10-27T16:59:39.049Z,0.58
2023-10-27T17:02:11.114Z,0.57
2023-10-27T17:04:45.275Z,0.61
2023-10-27T17:07:16.442Z,0.56
2023-10-27T17:09:52.937Z,0.65
2023-10-27T17:12:35.320Z,0.69
2023-10-27T17:15:05.353Z,0.60
2023-10-27T17:17:36.596Z,0.62
2023-10-27T17:20:16.192Z,0.65
2023-10-27T17:22:56.854Z,0.62
2023-10-27T17:25:25.054Z,0.60
2023-10-27T17:27:53.666Z,0.55
2023-10-27T17:30:23.341Z,0.61
2023-10-27T17:32:51.789Z,0.58
2023-10-27T17:35:20.946Z,0.57
2023-10-27T17:37:49.374Z,0.53
2023-10-27T17:40:20.024Z,0.58
2023-10-27T17:42:48.895Z,0.59
2023-10-27T17:45:19.469Z,0.53
2023-10-27T17:47:51.089Z,0.55
2023-10-27T17:50:19.337Z,0.59
2023-10-27T17:52:50.145Z,0.63
2023-10-27T17:55:18.249Z,0.62
2023-10-27T17:57:53.359Z,0.62
2023-10-27T18:00:25.552Z,0.64
2023-10-27T18:02:56.065Z,0.65
2023-10-27T18:05:26.153Z,0.60
2023-10-27T18:08:36.116Z,0.60
2023-10-27T18:11:07.686Z,0.60
2023-10-27T18:13:40.788Z,0.61
2023-10-27T18:16:09.452Z,0.61
2023-10-27T18:18:41.785Z,0.58
2023-10-27T18:21:12.428Z,0.57
2023-10-27T18:23:40.867Z,0.63
2023-10-27T18:26:19.890Z,0.61
2023-10-27T18:28:49.321Z,0.64
2023-10-27T18:31:18.192Z,0.62
2023-10-27T18:33:50.058Z,0.55
2023-10-27T18:36:24.664Z,0.59
2023-10-27T18:38:55.185Z,0.56
2023-10-27T18:41:23.718Z,0.54
2023-10-27T18:43:56.981Z,0.53
2023-10-27T18:46:27.619Z,0.50
2023-10-27T18:48:57.124Z,0.53
2023-10-27T18:51:25.183Z,0.54
2023-10-27T18:53:59.140Z,0.52
2023-10-27T18:56:34.783Z,0.54
2023-10-27T18:59:20.730Z,0.54
2023-10-27T19:01:49.489Z,0.52
2023-10-27T19:04:19.158Z,0.50
2023-10-27T19:06:49.555Z,0.55
2023-10-27T19:09:20.520Z,0.56
2023-10-27T19:11:48.492Z,0.51
2023-10-27T19:14:17.668Z,0.50
2023-10-27T19:16:49.309Z,0.48
2023-10-27T19:19:25.570Z,0.49
2023-10-27T19:21:56.176Z,0.50
2023-10-27T19:24:26.304Z,0.51
2023-10-27T19:26:56.592Z,0.54
2023-10-27T19:29:24.553Z,0.52
2023-10-27T19:31:52.622Z,0.48
2023-10-27T19:34:25.103Z,0.44
2023-10-27T19:36:53.171Z,0.46
2023-10-27T19:39:21.440Z,0.49
2023-10-27T19:42:00.070Z,0.48
2023-10-27T19:44:30.789Z,0.49
2023-10-27T19:46:58.827Z,0.45
2023-10-27T19:49:32.908Z,0.44
2023-10-27T19:52:01.273Z,0.40
2023-10-27T19:54:29.425Z,0.39
2023-10-27T19:57:01.458Z,0.42
2023-10-27T19:59:31.113Z,0.41
2023-10-27T20:02:03.277Z,0.42
2023-10-27T20:04:39.871Z,0.39
2023-10-27T20:07:15.372Z,0.43
2023-10-27T20:09:44.059Z,0.46
2023-10-27T20:12:18.561Z,0.42
2023-10-27T20:14:46.581Z,0.44
2023-10-27T20:17:26.817Z,0.41
2023-10-27T20:23:08.485Z,0.41
2023-10-27T20:25:47.113Z,0.50
2023-10-27T20:28:25.710Z,0.50
2023-10-27T20:31:02.332Z,0.44
2023-10-27T20:33:57.305Z,0.48
2023-10-27T20:36:30.794Z,0.43
2023-10-27T20:39:05.001Z,0.43
2023-10-27T20:41:34.805Z,0.47
2023-10-27T20:44:06.132Z,0.46
2023-10-27T20:46:35.725Z,0.44
2023-10-27T20:49:03.785Z,0.40
2023-10-27T20:51:35.640Z,0.39
2023-10-27T20:54:27.675Z,0.38
2023-10-27T20:57:11.614Z,0.36
2023-10-27T20:59:39.692Z,0.31
2023-10-27T21:02:12.595Z,0.33
2023-10-27T21:04:43.656Z,0.30
2023-10-27T21:07:19.278Z,0.28
2023-10-27T21:09:50.433Z,0.32
2023-10-27T21:12:24.167Z,0.36
2023-10-27T21:14:52.241Z,0.27
2023-10-27T21:17:20.311Z,0.22
2023-10-27T21:19:54.919Z,0.23
2023-10-27T21:22:24.419Z,0.24
2023-10-27T21:24:53.742Z,0.22
2023-10-27T21:27:24.676Z,0.18
2023-10-27T21:29:53.017Z,0.19
2023-10-27T21:32:21.304Z,0.21
2023-10-27T21:34:54.038Z,0.21
2023-10-27T21:37:23.732Z,0.22
2023-10-27T21:39:55.410Z,0.22
2023-10-27T21:42:23.604Z,0.26
2023-10-27T21:44:54.647Z,0.20
2023-10-27T21:47:24.415Z,0.18
2023-10-27T21:49:53.124Z,0.12
2023-10-27T21:52:21.292Z,0.17
2023-10-27T21:54:54.049Z,0.20
2023-10-27T21:57:23.392Z,0.15
2023-10-27T21:59:51.715Z,0.12
2023-10-27T22:02:20.465Z,0.05
2023-10-27T22:04:48.611Z,0.17
2023-10-27T22:07:18.886Z,0.11
2023-10-27T22:09:47.431Z,0.17
2023-10-27T22:12:19.440Z,0.16
2023-10-27T22:14:48.808Z,0.13
2023-10-27T22:17:16.911Z,0.16
2023-10-27T22:19:45.077Z,0.14
2023-10-27T22:22:16.345Z,0.12
2023-10-27T22:24:44.336Z,0.09
2023-10-27T22:27:12.342Z,0.15
2023-10-27T22:29:44.907Z,0.10
2023-10-27T22:32:14.552Z,0.13
2023-10-27T22:34:44.544Z,0.11
2023-10-27T22:37:14.761Z,0.13
2023-10-27T22:39:42.738Z,0.14
2023-10-27T22:42:10.982Z,0.17
2023-10-27T22:44:39.068Z,0.17
2023-10-27T22:47:07.538Z,0.14
2023-10-27T22:49:38.843Z,0.12
2023-10-27T22:52:07.112Z,0.16
2023-10-27T22:54:35.077Z,0.11
2023-10-27T22:57:04.907Z,0.12
2023-10-27T22:59:32.971Z,0.05
2023-10-27T23:02:01.021Z,0.03
2023-10-27T23:04:29.059Z,-0.01
2023-10-27T23:07:00.971Z,-0.03
2023-10-27T23:09:28.928Z,0.04
2023-10-27T23:11:56.901Z,-0.03
2023-10-27T23:14:24.984Z,-0.03
2023-10-27T23:16:56.185Z,-0.06
2023-10-27T23:19:24.698Z,-0.09
2023-10-27T23:21:53.883Z,-0.06
2023-10-27T23:24:25.107Z,0.01
2023-10-27T23:26:56.534Z,-0.03
2023-10-27T23:29:24.492Z,-0.04
2023-10-27T23:31:52.560Z,-0.06
2023-10-27T23:34:20.556Z,-0.01
2023-10-27T23:36:50.444Z,-0.04
2023-10-27T23:39:18.716Z,-0.02
2023-10-27T23:41:48.587Z,-0.09
2023-10-27T23:44:19.607Z,-0.12
2023-10-27T23:46:47.674Z,-0.12
2023-10-27T23:49:16.425Z,-0.08
2023-10-27T23:51:45.652Z,-0.09
2023-10-27T23:54:18.069Z,-0.05
2023-10-27T23:56:47.465Z,0.01
2023-10-27T23:59:16.399Z,-0.02
